Time;durP1;ratioP1;P1;durP2;ratioP2;P2;SDS_P1;SDS_P2;PMS_P1;PMS_P2;Temp;Humidity;BMP_temperature;BMP_pressure;BME280_temperature;BME280_humidity;BME280_pressure;Samples;Min_cycle;Max_cycle;Signal;HPM_P1;HPM_P2
2022/01/23 00:02:12;;;;;;;16.33;6.68;;;;;;;;;;8434938;28;20055;-72
2022/01/23 00:06:15;;;;;;;18.52;6.68;;;;;;;;;;8435175;28;20048;-73
2022/01/23 00:10:19;;;;;;;20.35;7.82;;;;;;;;;;8435048;28;20048;-73
2022/01/23 00:18:43;;;;;;;23.75;8.02;;;;;;;;;;8434422;28;20048;-73
2022/01/23 00:22:48;;;;;;;24.92;6.65;;;;;;;;;;8434155;28;20044;-74
2022/01/23 00:31:11;;;;;;;16.45;6.75;;;;;;;;;;8422688;28;20052;-73
2022/01/23 00:35:15;;;;;;;20.15;8.18;;;;;;;;;;8400188;28;20045;-73
2022/01/23 00:39:17;;;;;;;20.83;7.60;;;;;;;;;;8406973;28;20056;-73
2022/01/23 00:43:28;;;;;;;18.23;7.13;;;;;;;;;;8410708;28;20408;-73
2022/01/23 00:47:32;;;;;;;24.70;7.72;;;;;;;;;;8412553;28;20083;-77
2022/01/23 00:51:39;;;;;;;15.75;6.75;;;;;;;;;;8419633;28;20495;-74
2022/01/23 00:55:43;;;;;;;21.40;8.23;;;;;;;;;;8419640;28;20068;-73
2022/01/23 00:59:45;;;;;;;21.30;7.57;;;;;;;;;;8414416;28;20044;-73
2022/01/23 01:03:48;;;;;;;17.35;6.43;;;;;;;;;;8417503;28;20048;-72
2022/01/23 01:07:53;;;;;;;11.95;6.18;;;;;;;;;;8426052;28;20055;-76
2022/01/23 01:11:59;;;;;;;17.08;6.90;;;;;;;;;;8419013;28;20538;-72
2022/01/23 01:16:24;;;;;;;20.35;7.30;;;;;;;;;;8416866;28;20093;-73
2022/01/23 01:33:39;;;;;;;16.35;6.45;;;;;;;;;;8450308;28;20395;-73
2022/01/23 01:37:41;;;;;;;16.20;6.57;;;;;;;;;;8443722;28;20035;-72
2022/01/23 01:41:46;;;;;;;19.58;7.65;;;;;;;;;;8448482;28;20051;-73
2022/01/23 01:45:49;;;;;;;21.25;7.82;;;;;;;;;;8455902;28;20487;-73
2022/01/23 01:49:52;;;;;;;19.42;7.97;;;;;;;;;;8443947;28;20050;-73
2022/01/23 01:53:58;;;;;;;18.75;7.30;;;;;;;;;;8451459;28;20051;-72
2022/01/23 01:58:04;;;;;;;15.32;6.93;;;;;;;;;;8453930;28;20100;-72
2022/01/23 02:10:49;;;;;;;19.45;7.93;;;;;;;;;;8444673;28;20497;-72
2022/01/23 02:15:14;;;;;;;18.20;6.70;;;;;;;;;;8446898;28;20058;-72
2022/01/23 02:24:03;;;;;;;20.08;8.65;;;;;;;;;;8447214;28;20050;-73
2022/01/23 02:54:26;;;;;;;28.17;9.27;;;;;;;;;;8429980;28;20040;-73
2022/01/23 02:58:36;;;;;;;23.48;9.35;;;;;;;;;;8430008;28;20059;-72
2022/01/23 03:02:43;;;;;;;17.60;8.45;;;;;;;;;;8431987;28;20101;-72
2022/01/23 03:06:56;;;;;;;28.05;9.75;;;;;;;;;;8453982;28;20486;-72
2022/01/23 03:11:03;;;;;;;28.77;9.30;;;;;;;;;;8450292;28;20487;-73
2022/01/23 03:15:15;;;;;;;21.05;8.45;;;;;;;;;;8455811;28;20051;-72
2022/01/23 03:28:17;;;;;;;33.03;9.50;;;;;;;;;;8436088;28;20052;-72
2022/01/23 03:32:27;;;;;;;25.02;9.00;;;;;;;;;;8435865;28;20043;-72
2022/01/23 03:36:29;;;;;;;28.17;10.63;;;;;;;;;;8435779;28;20134;-73
2022/01/23 03:40:32;;;;;;;28.33;8.88;;;;;;;;;;8435677;28;20047;-72
2022/01/23 03:44:39;;;;;;;30.33;9.60;;;;;;;;;;8435900;28;20048;-73
2022/01/23 03:53:03;;;;;;;26.55;7.90;;;;;;;;;;8435203;28;20044;-72
2022/01/23 03:57:07;;;;;;;17.55;8.13;;;;;;;;;;8435535;28;20067;-72
2022/01/23 04:01:09;;;;;;;34.92;9.25;;;;;;;;;;8434850;28;20384;-75
2022/01/23 04:05:13;;;;;;;39.05;9.55;;;;;;;;;;8434859;28;20048;-72
2022/01/23 04:09:16;;;;;;;24.05;9.45;;;;;;;;;;8434672;28;20044;-74
2022/01/23 04:13:23;;;;;;;18.95;8.38;;;;;;;;;;8435006;28;20039;-72
2022/01/23 04:35:15;;;;;;;17.15;7.65;;;;;;;;;;8468183;28;20046;-73
2022/01/23 05:01:05;;;;;;;17.27;7.93;;;;;;;;;;8466818;28;20070;-73
2022/01/23 05:05:08;;;;;;;22.10;8.88;;;;;;;;;;8466693;28;20044;-73
2022/01/23 05:09:11;;;;;;;20.80;7.78;;;;;;;;;;8467015;28;20129;-72
2022/01/23 05:13:15;;;;;;;16.05;7.93;;;;;;;;;;8466390;28;20044;-72
2022/01/23 05:17:19;;;;;;;18.65;7.97;;;;;;;;;;8466859;28;20433;-72
2022/01/23 05:21:48;;;;;;;20.25;8.35;;;;;;;;;;8465986;28;20051;-73
2022/01/23 05:25:52;;;;;;;21.65;8.45;;;;;;;;;;8466221;28;20481;-72
2022/01/23 05:29:58;;;;;;;18.90;8.30;;;;;;;;;;8465779;28;20051;-72
2022/01/23 05:34:00;;;;;;;18.33;8.60;;;;;;;;;;8465559;28;20044;-72
2022/01/23 05:38:03;;;;;;;22.42;8.95;;;;;;;;;;8466041;28;20048;-72
2022/01/23 05:42:08;;;;;;;22.17;8.57;;;;;;;;;;8465389;28;20104;-73
2022/01/23 05:46:13;;;;;;;24.00;9.77;;;;;;;;;;8465370;28;20044;-72
2022/01/23 05:50:15;;;;;;;17.90;7.40;;;;;;;;;;8465317;28;20100;-72
2022/01/23 05:54:18;;;;;;;22.92;10.02;;;;;;;;;;8465160;28;20042;-72
2022/01/23 05:58:20;;;;;;;26.05;9.77;;;;;;;;;;8465430;28;20457;-72
2022/01/23 06:02:24;;;;;;;26.08;10.55;;;;;;;;;;8464785;28;20479;-72
2022/01/23 06:06:27;;;;;;;23.23;8.55;;;;;;;;;;8457949;28;20036;-72
2022/01/23 06:10:36;;;;;;;20.23;10.13;;;;;;;;;;8446764;28;20479;-72
2022/01/23 06:14:38;;;;;;;22.02;9.40;;;;;;;;;;8429072;28;20048;-72
2022/01/23 06:18:45;;;;;;;28.48;10.75;;;;;;;;;;8440255;28;20479;-72
2022/01/23 06:22:48;;;;;;;24.20;9.40;;;;;;;;;;8445757;28;20076;-72
2022/01/23 06:26:53;;;;;;;24.00;9.98;;;;;;;;;;8464610;28;20055;-73
2022/01/23 06:30:55;;;;;;;22.05;9.57;;;;;;;;;;8419914;28;20672;-73
2022/01/23 06:35:00;;;;;;;26.88;10.50;;;;;;;;;;8418387;28;20051;-72
2022/01/23 06:39:04;;;;;;;24.58;8.68;;;;;;;;;;8424079;28;20063;-73
2022/01/23 06:43:07;;;;;;;20.40;8.57;;;;;;;;;;8420348;28;20404;-73
2022/01/23 06:47:10;;;;;;;21.13;7.82;;;;;;;;;;8429811;28;20051;-72
2022/01/23 06:51:14;;;;;;;18.15;7.93;;;;;;;;;;8429747;28;20048;-72
2022/01/23 06:55:17;;;;;;;23.33;9.20;;;;;;;;;;8429366;28;20051;-72
2022/01/23 06:59:19;;;;;;;22.38;9.73;;;;;;;;;;8397302;28;20048;-74
2022/01/23 07:03:22;;;;;;;20.40;9.25;;;;;;;;;;8395145;28;20052;-73
2022/01/23 07:07:26;;;;;;;21.98;10.40;;;;;;;;;;8396353;28;20045;-72
2022/01/23 07:11:29;;;;;;;25.63;11.02;;;;;;;;;;8396101;28;20048;-73
2022/01/23 07:15:32;;;;;;;24.25;9.57;;;;;;;;;;8402402;28;20052;-72
2022/01/23 07:19:34;;;;;;;20.83;8.70;;;;;;;;;;8422083;28;20051;-73
2022/01/23 07:23:38;;;;;;;17.17;8.98;;;;;;;;;;8395874;28;20173;-72
2022/01/23 07:27:47;;;;;;;24.40;9.63;;;;;;;;;;8394707;28;20076;-73
2022/01/23 07:32:00;;;;;;;23.67;10.88;;;;;;;;;;8401227;28;20487;-72
2022/01/23 07:36:03;;;;;;;29.00;10.32;;;;;;;;;;8393229;28;20392;-72
2022/01/23 07:40:09;;;;;;;25.73;9.85;;;;;;;;;;8411715;28;20044;-73
2022/01/23 07:44:12;;;;;;;27.73;11.50;;;;;;;;;;8429149;28;20403;-73
2022/01/23 07:48:15;;;;;;;22.92;11.02;;;;;;;;;;8427641;28;20048;-74
2022/01/23 07:52:17;;;;;;;24.85;11.32;;;;;;;;;;8417156;28;20040;-72
2022/01/23 07:56:21;;;;;;;27.52;11.05;;;;;;;;;;8410792;28;20060;-74
2022/01/23 08:00:24;;;;;;;28.30;11.00;;;;;;;;;;8419678;28;20052;-73
2022/01/23 08:04:27;;;;;;;23.48;10.52;;;;;;;;;;8402495;28;20048;-72
2022/01/23 08:08:29;;;;;;;24.65;11.10;;;;;;;;;;8415491;28;20044;-71
2022/01/23 08:12:34;;;;;;;27.08;10.15;;;;;;;;;;8434951;28;20051;-73
2022/01/23 08:16:37;;;;;;;28.73;10.48;;;;;;;;;;8433707;28;20044;-72
2022/01/23 08:20:40;;;;;;;26.70;11.23;;;;;;;;;;8432990;28;20051;-72
2022/01/23 08:24:43;;;;;;;23.75;11.23;;;;;;;;;;8433928;28;20048;-75
2022/01/23 08:28:47;;;;;;;24.50;11.15;;;;;;;;;;8448048;28;20098;-74
2022/01/23 08:32:50;;;;;;;40.33;14.00;;;;;;;;;;8465226;28;20460;-74
2022/01/23 08:36:55;;;;;;;32.90;11.75;;;;;;;;;;8407502;28;20078;-74
2022/01/23 08:45:24;;;;;;;38.00;14.10;;;;;;;;;;8454196;28;20096;-72
2022/01/23 08:49:43;;;;;;;30.60;11.52;;;;;;;;;;8452115;28;20067;-72
2022/01/23 08:53:55;;;;;;;32.60;12.52;;;;;;;;;;8463740;28;20044;-74
2022/01/23 08:58:03;;;;;;;26.05;10.30;;;;;;;;;;8458789;28;20070;-74
2022/01/23 09:02:22;;;;;;;25.25;11.57;;;;;;;;;;8460976;28;20043;-73
2022/01/23 09:06:44;;;;;;;22.00;10.25;;;;;;;;;;8455157;28;20043;-72
2022/01/23 09:11:09;;;;;;;23.17;11.25;;;;;;;;;;8449946;28;20063;-72
2022/01/23 09:15:30;;;;;;;27.27;10.18;;;;;;;;;;8450955;28;20415;-72
2022/01/23 09:19:53;;;;;;;28.52;13.77;;;;;;;;;;8461908;28;20460;-72
2022/01/23 09:24:11;;;;;;;29.13;11.68;;;;;;;;;;8455566;28;20058;-72
2022/01/23 09:28:31;;;;;;;29.85;13.65;;;;;;;;;;8457407;28;20459;-72
2022/01/23 09:32:39;;;;;;;38.53;15.02;;;;;;;;;;8456527;28;20047;-72
2022/01/23 09:36:54;;;;;;;120.82;49.08;;;;;;;;;;8462642;28;20043;-72
2022/01/23 09:41:13;;;;;;;32.92;14.25;;;;;;;;;;8462554;28;20048;-72
2022/01/23 09:45:41;;;;;;;31.92;12.80;;;;;;;;;;8458587;28;20047;-72
2022/01/23 09:49:57;;;;;;;27.02;12.02;;;;;;;;;;8450831;28;20048;-72
2022/01/23 09:54:18;;;;;;;24.35;11.25;;;;;;;;;;8459404;28;20047;-73
2022/01/23 09:58:40;;;;;;;28.85;14.13;;;;;;;;;;8456584;28;20055;-72
2022/01/23 10:02:55;;;;;;;30.73;12.95;;;;;;;;;;8460157;28;20052;-72
2022/01/23 10:07:14;;;;;;;29.33;13.52;;;;;;;;;;8456201;28;20036;-73
2022/01/23 10:11:26;;;;;;;34.23;13.70;;;;;;;;;;8460646;28;20058;-73
2022/01/23 10:15:35;;;;;;;33.78;12.70;;;;;;;;;;8461437;28;20039;-74
2022/01/23 10:19:41;;;;;;;28.50;13.50;;;;;;;;;;8455361;28;20187;-74
2022/01/23 10:23:45;;;;;;;36.53;16.10;;;;;;;;;;8454955;28;20475;-74
2022/01/23 10:28:05;;;;;;;32.85;13.55;;;;;;;;;;8459006;28;20047;-73
2022/01/23 10:32:19;;;;;;;18.85;10.70;;;;;;;;;;8458463;28;20047;-73
2022/01/23 10:36:25;;;;;;;27.30;12.75;;;;;;;;;;8451444;28;20104;-73
2022/01/23 10:40:33;;;;;;;17.15;8.60;;;;;;;;;;8460630;28;20044;-73
2022/01/23 10:49:54;;;;;;;17.40;8.48;;;;;;;;;;8447505;28;20064;-76
2022/01/23 10:54:15;;;;;;;16.52;7.38;;;;;;;;;;8429960;28;20048;-72
2022/01/23 10:58:26;;;;;;;17.63;7.72;;;;;;;;;;8429795;28;20040;-72
2022/01/23 11:02:35;;;;;;;16.50;7.22;;;;;;;;;;8437319;28;20438;-73
2022/01/23 11:07:01;;;;;;;16.20;7.82;;;;;;;;;;8443480;28;20042;-73
2022/01/23 11:11:08;;;;;;;21.42;8.57;;;;;;;;;;8456018;28;20487;-73
2022/01/23 11:19:43;;;;;;;18.00;8.63;;;;;;;;;;8452880;28;20047;-73
2022/01/23 11:23:59;;;;;;;22.70;8.95;;;;;;;;;;8452709;28;20048;-74
2022/01/23 11:28:12;;;;;;;17.27;7.72;;;;;;;;;;8450113;28;20138;-73
2022/01/23 11:32:19;;;;;;;13.80;7.47;;;;;;;;;;8465715;28;20042;-73
2022/01/23 11:36:36;;;;;;;16.33;7.53;;;;;;;;;;8460926;28;20479;-73
2022/01/23 11:53:57;;;;;;;19.42;8.57;;;;;;;;;;8415624;28;20044;-73
2022/01/23 11:58:02;;;;;;;17.52;7.03;;;;;;;;;;8450913;28;20113;-73
2022/01/23 12:02:25;;;;;;;15.90;6.53;;;;;;;;;;8434419;28;20472;-72
2022/01/23 12:06:28;;;;;;;14.85;7.35;;;;;;;;;;8434795;28;20044;-72
2022/01/23 12:10:50;;;;;;;18.05;8.10;;;;;;;;;;8434463;28;20126;-78
2022/01/23 12:20:09;;;;;;;29.05;10.75;;;;;;;;;;8441765;28;20047;-73
2022/01/23 12:24:31;;;;;;;15.63;7.40;;;;;;;;;;8460973;28;20050;-71
2022/01/23 12:29:14;;;;;;;27.75;12.55;;;;;;;;;;8455646;28;20063;-72
2022/01/23 12:33:35;;;;;;;18.10;9.23;;;;;;;;;;8466455;28;20068;-71
2022/01/23 12:38:11;;;;;;;20.42;8.88;;;;;;;;;;8459163;28;20304;-76
2022/01/23 12:42:28;;;;;;;16.95;8.15;;;;;;;;;;8461601;28;20385;-74
2022/01/23 12:46:41;;;;;;;14.02;6.32;;;;;;;;;;8460157;28;20574;-74
2022/01/23 12:50:47;;;;;;;9.48;5.32;;;;;;;;;;8461721;28;20062;-75
2022/01/23 12:55:03;;;;;;;12.00;5.55;;;;;;;;;;8463306;28;20048;-76
2022/01/23 12:59:22;;;;;;;17.40;7.22;;;;;;;;;;8462518;28;20043;-74
2022/01/23 13:03:31;;;;;;;25.67;10.38;;;;;;;;;;8452173;28;20438;-74
2022/01/23 13:07:41;;;;;;;9.73;4.82;;;;;;;;;;8460564;28;20048;-74
2022/01/23 13:12:06;;;;;;;13.98;5.88;;;;;;;;;;8465365;28;20057;-73
2022/01/23 13:16:33;;;;;;;14.93;6.55;;;;;;;;;;8466307;28;20043;-73
2022/01/23 13:29:59;;;;;;;13.43;6.70;;;;;;;;;;8456302;28;20059;-74
2022/01/23 13:34:02;;;;;;;18.30;7.40;;;;;;;;;;8432328;28;20040;-74
2022/01/23 13:38:10;;;;;;;26.42;10.07;;;;;;;;;;8433889;28;20104;-73
2022/01/23 13:42:45;;;;;;;117.30;41.15;;;;;;;;;;8465278;28;20044;-73
2022/01/23 13:51:35;;;;;;;16.17;6.95;;;;;;;;;;8465377;28;20069;-75
2022/01/23 14:00:07;;;;;;;15.07;6.93;;;;;;;;;;8431269;28;20044;-73
2022/01/23 14:04:10;;;;;;;16.40;8.00;;;;;;;;;;8431325;28;20050;-73
2022/01/23 14:08:14;;;;;;;19.25;6.63;;;;;;;;;;8454012;28;20047;-75
2022/01/23 14:12:21;;;;;;;28.85;11.93;;;;;;;;;;8464418;28;20052;-73
2022/01/23 14:16:27;;;;;;;18.95;8.85;;;;;;;;;;8448552;28;20051;-73
2022/01/23 14:20:32;;;;;;;11.85;6.00;;;;;;;;;;8435464;28;20055;-74
2022/01/23 14:24:40;;;;;;;19.73;9.40;;;;;;;;;;8439370;28;20043;-74
2022/01/23 14:28:48;;;;;;;13.77;7.13;;;;;;;;;;8431759;28;20048;-74
2022/01/23 14:32:53;;;;;;;14.27;6.20;;;;;;;;;;8437431;28;20062;-74
2022/01/23 14:36:58;;;;;;;13.63;6.75;;;;;;;;;;8437279;28;20043;-77
2022/01/23 14:41:09;;;;;;;15.70;7.30;;;;;;;;;;8438266;28;20468;-76
2022/01/23 14:45:13;;;;;;;19.52;8.18;;;;;;;;;;8446207;28;20109;-73
2022/01/23 14:49:22;;;;;;;19.42;7.63;;;;;;;;;;8424489;28;20040;-73
2022/01/23 14:53:26;;;;;;;39.45;15.02;;;;;;;;;;8429749;28;20113;-72
2022/01/23 14:57:34;;;;;;;16.75;7.18;;;;;;;;;;8436321;28;20048;-73
2022/01/23 15:01:47;;;;;;;10.98;5.20;;;;;;;;;;8451002;28;20046;-74
2022/01/23 15:05:52;;;;;;;11.82;5.78;;;;;;;;;;8442293;28;20044;-75
2022/01/23 15:09:55;;;;;;;11.15;6.68;;;;;;;;;;8410491;28;20105;-73
2022/01/23 15:13:59;;;;;;;10.32;5.60;;;;;;;;;;8454853;28;20051;-73
2022/01/23 15:18:04;;;;;;;12.63;5.10;;;;;;;;;;8434717;28;20059;-75
2022/01/23 15:22:08;;;;;;;30.40;16.95;;;;;;;;;;8414152;28;20044;-75
2022/01/23 15:26:11;;;;;;;62.58;28.67;;;;;;;;;;8451636;28;20054;-73
2022/01/23 15:30:17;;;;;;;57.33;25.48;;;;;;;;;;8463136;28;20495;-73
2022/01/23 15:34:23;;;;;;;68.25;24.35;;;;;;;;;;8447785;28;20076;-73
2022/01/23 15:38:29;;;;;;;36.97;15.90;;;;;;;;;;8440732;28;20054;-75
2022/01/23 15:42:32;;;;;;;48.72;21.25;;;;;;;;;;8446949;28;20047;-73
2022/01/23 15:46:36;;;;;;;78.57;24.80;;;;;;;;;;8467376;28;20048;-73
2022/01/23 15:50:43;;;;;;;74.07;29.10;;;;;;;;;;8449171;28;20384;-77
2022/01/23 15:54:49;;;;;;;67.20;23.02;;;;;;;;;;8459142;28;20055;-73
2022/01/23 15:58:52;;;;;;;20.40;9.10;;;;;;;;;;8434471;28;20056;-73
2022/01/23 16:02:55;;;;;;;33.63;18.08;;;;;;;;;;8441098;28;20599;-74
2022/01/23 16:06:59;;;;;;;20.25;11.07;;;;;;;;;;8425534;28;20040;-73
2022/01/23 16:11:03;;;;;;;38.70;19.00;;;;;;;;;;8454353;28;20044;-75
2022/01/23 16:15:07;;;;;;;30.63;16.73;;;;;;;;;;8457385;28;20047;-76
2022/01/23 16:19:11;;;;;;;57.00;16.60;;;;;;;;;;8442205;28;20160;-75
2022/01/23 16:23:24;;;;;;;63.45;19.23;;;;;;;;;;8437329;28;20051;-79
2022/01/23 16:27:33;;;;;;;63.40;16.98;;;;;;;;;;8432942;28;20396;-73
2022/01/23 16:31:41;;;;;;;119.47;37.97;;;;;;;;;;8422022;28;20051;-75
2022/01/23 16:35:49;;;;;;;67.18;25.75;;;;;;;;;;8419360;28;20508;-73
2022/01/23 16:39:59;;;;;;;46.00;19.67;;;;;;;;;;8424439;28;20784;-78
2022/01/23 16:44:08;;;;;;;52.63;18.27;;;;;;;;;;8420507;28;20044;-74
2022/01/23 16:48:14;;;;;;;58.90;21.25;;;;;;;;;;8418723;28;20129;-77
2022/01/23 16:52:19;;;;;;;41.17;17.40;;;;;;;;;;8419719;28;20075;-73
2022/01/23 16:56:33;;;;;;;57.03;20.38;;;;;;;;;;8428051;28;20503;-77
2022/01/23 17:00:40;;;;;;;30.33;11.18;;;;;;;;;;8417682;28;20045;-74
2022/01/23 17:04:47;;;;;;;70.30;21.42;;;;;;;;;;8423795;28;20079;-76
2022/01/23 17:08:55;;;;;;;63.35;17.83;;;;;;;;;;8419991;28;20170;-74
2022/01/23 17:13:06;;;;;;;77.65;25.98;;;;;;;;;;8423055;28;20047;-73
2022/01/23 17:17:11;;;;;;;55.92;20.55;;;;;;;;;;8421547;28;20040;-73
2022/01/23 17:21:16;;;;;;;62.47;22.40;;;;;;;;;;8415896;28;20047;-73
2022/01/23 17:25:20;;;;;;;79.20;23.98;;;;;;;;;;8421839;28;20048;-73
2022/01/23 17:29:30;;;;;;;62.17;21.92;;;;;;;;;;8404671;28;20049;-74
2022/01/23 17:33:34;;;;;;;85.80;29.77;;;;;;;;;;8421238;28;20051;-74
2022/01/23 17:37:52;;;;;;;66.28;23.77;;;;;;;;;;8414837;28;20055;-73
2022/01/23 17:42:10;;;;;;;68.88;24.67;;;;;;;;;;8414478;28;20480;-73
2022/01/23 17:46:56;;;;;;;55.00;20.15;;;;;;;;;;8419792;28;20048;-73
2022/01/23 17:51:16;;;;;;;39.00;14.55;;;;;;;;;;8418558;28;20105;-73
2022/01/23 17:55:35;;;;;;;49.22;18.65;;;;;;;;;;8417933;28;20039;-72
2022/01/23 17:59:56;;;;;;;25.40;12.15;;;;;;;;;;8411983;28;20054;-74
2022/01/23 18:04:03;;;;;;;35.25;14.25;;;;;;;;;;8409825;28;20067;-73
2022/01/23 18:08:34;;;;;;;29.25;12.38;;;;;;;;;;8404667;28;20051;-73
2022/01/23 18:12:47;;;;;;;35.75;15.13;;;;;;;;;;8421080;28;20048;-73
2022/01/23 18:17:15;;;;;;;61.60;18.67;;;;;;;;;;8403251;28;20211;-73
2022/01/23 18:21:20;;;;;;;72.93;25.73;;;;;;;;;;8404914;28;20094;-74
2022/01/23 18:25:26;;;;;;;58.83;19.00;;;;;;;;;;8399927;28;20158;-72
2022/01/23 18:29:31;;;;;;;54.42;19.48;;;;;;;;;;8416661;28;20044;-74
2022/01/23 18:33:34;;;;;;;88.85;26.92;;;;;;;;;;8438730;28;20055;-74
2022/01/23 18:37:38;;;;;;;166.73;41.53;;;;;;;;;;8430541;28;20051;-73
2022/01/23 18:41:43;;;;;;;149.82;39.25;;;;;;;;;;8428666;28;20039;-75
2022/01/23 18:45:47;;;;;;;149.85;40.22;;;;;;;;;;8438666;28;20054;-74
2022/01/23 18:49:50;;;;;;;91.13;31.15;;;;;;;;;;8435242;28;20046;-74
2022/01/23 18:54:05;;;;;;;97.00;28.55;;;;;;;;;;8454885;28;20047;-73
2022/01/23 18:58:11;;;;;;;63.30;21.23;;;;;;;;;;8463902;28;20471;-75
2022/01/23 19:02:17;;;;;;;82.32;27.80;;;;;;;;;;8459118;28;20081;-74
2022/01/23 19:06:31;;;;;;;187.88;54.40;;;;;;;;;;8457005;28;20039;-73
2022/01/23 19:10:39;;;;;;;103.68;34.58;;;;;;;;;;8439420;28;20079;-74
2022/01/23 19:14:43;;;;;;;78.07;29.05;;;;;;;;;;8437051;28;20097;-74
2022/01/23 19:18:47;;;;;;;75.80;28.17;;;;;;;;;;8436761;28;20057;-73
2022/01/23 19:22:52;;;;;;;55.30;21.75;;;;;;;;;;8437718;28;20044;-74
2022/01/23 19:26:57;;;;;;;57.45;20.48;;;;;;;;;;8451706;28;20047;-73
2022/01/23 19:31:07;;;;;;;447.02;135.52;;;;;;;;;;8456749;28;20062;-73
2022/01/23 19:35:37;;;;;;;103.35;35.58;;;;;;;;;;8459910;28;20066;-73
2022/01/23 19:39:50;;;;;;;71.18;25.75;;;;;;;;;;8461011;28;20047;-77
2022/01/23 19:44:07;;;;;;;325.77;80.18;;;;;;;;;;8446333;28;20044;-75
2022/01/23 19:48:26;;;;;;;114.22;35.13;;;;;;;;;;8443928;28;20044;-75
2022/01/23 19:52:38;;;;;;;188.93;49.85;;;;;;;;;;8461246;28;20040;-74
2022/01/23 19:56:48;;;;;;;97.28;29.58;;;;;;;;;;8457951;28;20039;-73
2022/01/23 20:00:58;;;;;;;93.05;35.00;;;;;;;;;;8453122;28;20040;-75
2022/01/23 20:05:06;;;;;;;77.63;27.05;;;;;;;;;;8455440;28;20131;-75
2022/01/23 20:09:10;;;;;;;59.78;23.42;;;;;;;;;;8459211;28;20552;-74
2022/01/23 20:13:22;;;;;;;74.82;28.48;;;;;;;;;;8408752;28;20092;-76
2022/01/23 20:17:28;;;;;;;57.03;21.05;;;;;;;;;;8457853;28;20035;-74
2022/01/23 20:21:35;;;;;;;47.38;18.88;;;;;;;;;;8446995;28;20408;-74
2022/01/23 20:25:38;;;;;;;42.17;16.35;;;;;;;;;;8452561;28;20047;-74
2022/01/23 20:29:42;;;;;;;40.30;15.68;;;;;;;;;;8465097;28;20047;-75
2022/01/23 20:33:48;;;;;;;29.83;13.13;;;;;;;;;;8460887;28;20073;-75
2022/01/23 20:37:54;;;;;;;68.47;24.13;;;;;;;;;;8454477;28;20043;-74
2022/01/23 20:41:58;;;;;;;27.52;13.70;;;;;;;;;;8450843;28;20075;-76
2022/01/23 20:46:02;;;;;;;39.72;16.95;;;;;;;;;;8445029;28;20048;-74
2022/01/23 20:50:14;;;;;;;28.02;10.35;;;;;;;;;;8431841;28;20043;-74
2022/01/23 20:54:17;;;;;;;29.80;10.60;;;;;;;;;;8433162;28;20507;-78
2022/01/23 20:58:20;;;;;;;22.95;10.13;;;;;;;;;;8433672;28;20092;-75
2022/01/23 21:02:25;;;;;;;31.92;14.43;;;;;;;;;;8432189;28;20089;-73
2022/01/23 21:06:30;;;;;;;36.33;13.25;;;;;;;;;;8432596;28;20051;-74
2022/01/23 21:10:33;;;;;;;59.00;20.92;;;;;;;;;;8430499;28;20484;-73
2022/01/23 21:14:45;;;;;;;52.15;19.17;;;;;;;;;;8432925;28;20050;-75
2022/01/23 21:18:58;;;;;;;35.20;13.15;;;;;;;;;;8433400;28;20502;-73
2022/01/23 21:23:12;;;;;;;55.08;20.08;;;;;;;;;;8432480;28;20044;-73
2022/01/23 21:40:19;;;;;;;28.88;16.05;;;;;;;;;;8431940;28;20066;-73
2022/01/23 21:44:23;;;;;;;39.55;16.38;;;;;;;;;;8431692;28;20451;-74
2022/01/23 21:48:26;;;;;;;29.58;11.48;;;;;;;;;;8431698;28;20044;-73
2022/01/23 21:52:29;;;;;;;61.42;19.20;;;;;;;;;;8431462;28;20056;-74
2022/01/23 21:56:33;;;;;;;37.00;16.38;;;;;;;;;;8431830;28;20449;-74
2022/01/23 22:00:36;;;;;;;40.03;16.85;;;;;;;;;;8431735;28;20086;-73
2022/01/23 22:04:39;;;;;;;51.30;19.85;;;;;;;;;;8431077;28;20048;-72
2022/01/23 22:08:44;;;;;;;47.15;17.77;;;;;;;;;;8431075;28;20047;-74
2022/01/23 22:13:10;;;;;;;79.35;25.23;;;;;;;;;;8430438;28;20283;-73
2022/01/23 22:17:13;;;;;;;67.03;19.48;;;;;;;;;;8431227;28;20048;-73
2022/01/23 22:21:23;;;;;;;56.75;17.95;;;;;;;;;;8430792;28;20097;-74
2022/01/23 22:29:47;;;;;;;35.83;13.30;;;;;;;;;;8430435;28;20109;-73
2022/01/23 22:33:50;;;;;;;45.47;16.35;;;;;;;;;;8430402;28;20040;-73
2022/01/23 22:37:56;;;;;;;24.83;10.77;;;;;;;;;;8430820;28;20048;-73
2022/01/23 22:41:59;;;;;;;21.83;10.52;;;;;;;;;;8430333;28;20044;-74
2022/01/23 22:46:24;;;;;;;44.95;16.63;;;;;;;;;;8430125;28;20101;-74
2022/01/23 22:50:27;;;;;;;36.65;13.73;;;;;;;;;;8430244;28;20044;-73
2022/01/23 22:54:31;;;;;;;43.50;17.88;;;;;;;;;;8430203;28;20048;-74
2022/01/23 22:58:34;;;;;;;95.43;33.70;;;;;;;;;;8430096;28;20048;-73
2022/01/23 23:02:38;;;;;;;92.40;24.20;;;;;;;;;;8430324;28;20047;-76
2022/01/23 23:06:41;;;;;;;360.05;101.07;;;;;;;;;;8429826;28;20438;-73
2022/01/23 23:10:44;;;;;;;92.72;31.27;;;;;;;;;;8429777;28;20492;-74
2022/01/23 23:14:51;;;;;;;56.25;18.42;;;;;;;;;;8430209;28;20420;-73
2022/01/23 23:18:57;;;;;;;53.33;18.23;;;;;;;;;;8429744;28;20082;-74
2022/01/23 23:23:00;;;;;;;34.88;14.68;;;;;;;;;;8429940;28;20055;-73
2022/01/23 23:27:03;;;;;;;36.22;15.07;;;;;;;;;;8434710;28;20071;-72
2022/01/23 23:31:07;;;;;;;32.55;13.40;;;;;;;;;;8435947;28;20052;-74
2022/01/23 23:35:12;;;;;;;44.92;19.70;;;;;;;;;;8435997;28;20051;-75
2022/01/23 23:39:30;;;;;;;29.50;13.23;;;;;;;;;;8436270;28;20058;-73
2022/01/23 23:43:39;;;;;;;54.20;20.15;;;;;;;;;;8436136;28;20048;-74
2022/01/23 23:47:42;;;;;;;31.92;11.57;;;;;;;;;;8435393;28;20097;-74
2022/01/23 23:51:47;;;;;;;26.58;13.02;;;;;;;;;;8435896;28;20148;-74
2022/01/23 23:55:50;;;;;;;24.40;12.15;;;;;;;;;;8436011;28;20048;-73
2022/01/23 23:59:52;;;;;;;29.83;11.90;;;;;;;;;;8435125;28;20109;-75
